Rocky Hill, NJ (08553)

3:48 AM EDT on July 28, 2017 (GMT -0400)
| | Change Station
Active Advisory: Special Statement

Elev -9999 ft 0.00 °N, 0.00 °E | Updated 7 minutes ago

Mostly Cloudy
Mostly Cloudy
°F
Feels Like °F
N
Wind Variable Wind from North
Gusts mph

Today
High -- | Low -- °F
--% Chance of Precip.
Yesterday
High -- | Low -- °F
Precip. -- in
Pressure 29.82 in
Visibility 10.0 miles
Clouds Scattered Clouds 1100 ft
Dew Point Not available.
Humidity Not available.
Rainfall --
Snow Depth Not available.
5:52 AM 8:17 PM
Waxing Crescent, 28% visible
METAR KTTN 280653Z AUTO 00000KT 10SM SCT011 22/21 A2984 RMK AO2 SLP098 T02170206
Pressure 29.82 in
Visibility 10.0 miles
Clouds Scattered Clouds 1100 ft
Dew Point Not available.
Humidity Not available.
Rainfall --
Snow Depth Not available.
5:52 AM 8:17 PM
Waxing Crescent, 28% visible
METAR KTTN 280653Z AUTO 00000KT 10SM SCT011 22/21 A2984 RMK AO2 SLP098 T02170206

Get Your Daily Forecast Email!

Thanks for signing up!

Be on the lookout for a verification email in your inbox.

You'll start receiving severe weather alerts in your inbox..

×

10-Day Weather Forecast

Almanac

Astronomy

Jul. 28, 2017 Rise Set
Actual Time
Civil Twilight
Nautical Twilight
Astronomical Twilight
Moon
Length of Visible Light
Length of Day
Tomorrow will be .
, % of the Moon is Illuminated

Today's Extremes

State Highs State Lows

Community

WunderPhotos

Category 6

Welcome to Category 6. This is the collective home for Weather Underground's featured writeups by Dr. Jeff Masters (right), Bob Henson (left), Chris Burt, and other regular contributors.

Nearby

Air Quality

  Air Quality AQ Index Pollutant
Not available.

Snow Depth

Station Depth Elevation

Earthquake Activity

City Distance Mag. Time & Date
Minimum magnitude displayed is 2.5.

Coastal Water Temperatures

Place Temperature

Stations

Nearby Weather Stations

Station Location Temp. Windchill Dew Point Humidity Wind Precip. Elev Updated Type
                   

Watches & Warnings

Special Statement
Issued: 1:24 AM EDT Jul. 28, 2017 – National Weather Service

... Patchy dense fog...

Fog will develop across eastern Pennsylvania and northern New
Jersey early this morning. The fog will be locally dense, with
visibilities less than one-quarter of a mile at times. Make sure
to reduce your speed when traveling through the fog and travel
with caution. The fog is expected to last at least through 5 a.M.
Across these areas.


Po

124 am EDT Fri Jul 28 2017

... Patchy dense fog...

Fog will develop across eastern Pennsylvania and northern New
Jersey early this morning. The fog will be locally dense, with
visibilities less than one-quarter of a mile at times. Make sure
to reduce your speed when traveling through the fog and travel
with caution. The fog is expected to last at least through 5 a.M.
Across these areas.


Po